Time;durP1;ratioP1;P1;durP2;ratioP2;P2;SDS_P1;SDS_P2;PMS_P1;PMS_P2;Temp;Humidity;BMP_temperature;BMP_pressure;BME280_temperature;BME280_humidity;BME280_pressure;Samples;Min_cycle;Max_cycle;Signal;HPM_P1;HPM_P2
2023/07/05 00:00:38;;;;;;;6.30;5.80;;;;;;;20.12;100.00;99720.96;104370;1269;72976;-57
2023/07/05 00:03:05;;;;;;;7.80;5.70;;;;;;;20.08;100.00;99716.80;104249;1270;61400;-57
2023/07/05 00:05:36;;;;;;;6.00;5.40;;;;;;;20.06;100.00;99711.85;104323;1269;59935;-57
2023/07/05 00:08:04;;;;;;;6.40;5.80;;;;;;;20.02;100.00;99708.23;104480;1266;74365;-57
2023/07/05 00:10:31;;;;;;;10.10;5.70;;;;;;;19.99;100.00;99710.93;104359;1256;69151;-57
2023/07/05 00:12:59;;;;;;;7.40;6.20;;;;;;;20.00;100.00;99715.65;104405;1259;71340;-57
2023/07/05 00:15:27;;;;;;;6.20;5.30;;;;;;;20.00;100.00;99717.60;104257;1254;61600;-57
2023/07/05 00:17:54;;;;;;;7.80;6.30;;;;;;;20.00;100.00;99721.15;104253;1256;60548;-58
2023/07/05 00:20:22;;;;;;;8.00;6.10;;;;;;;19.98;100.00;99718.30;104325;1256;73628;-57
2023/07/05 00:22:50;;;;;;;8.20;6.60;;;;;;;19.96;100.00;99714.21;104333;1267;68180;-57
2023/07/05 00:25:18;;;;;;;8.20;5.20;;;;;;;19.94;100.00;99714.55;104370;1272;73066;-58
2023/07/05 00:27:45;;;;;;;7.00;5.90;;;;;;;19.92;100.00;99719.52;104309;1253;61728;-59
2023/07/05 00:30:12;;;;;;;8.80;5.40;;;;;;;19.92;100.00;99722.73;104306;1257;60619;-58
2023/07/05 00:32:40;;;;;;;;;;;;;;;19.94;100.00;99721.54;104306;1256;74722;-58
2023/07/05 00:35:07;;;;;;;6.90;5.80;;;;;;;19.93;100.00;99722.44;105969;1253;69186;-58
2023/07/05 00:40:28;;;;;;;7.60;6.50;;;;;;;19.75;100.00;99724.58;101742;1291;618429;-57
2023/07/05 00:42:55;;;;;;;7.40;6.40;;;;;;;19.94;100.00;99724.34;105308;1260;60822;-57
2023/07/05 00:45:34;;;;;;;12.40;6.70;;;;;;;19.90;100.00;99728.58;104186;1275;60782;-57
2023/07/05 00:48:01;;;;;;;9.80;6.60;;;;;;;19.87;100.00;99733.29;104164;1264;72524;-57
2023/07/05 00:50:33;;;;;;;9.80;7.20;;;;;;;19.87;100.00;99735.39;104527;1261;69982;-57
2023/07/05 00:53:01;;;;;;;8.40;7.10;;;;;;;19.88;100.00;99741.87;104023;1260;191873;-57
2023/07/05 00:55:28;;;;;;;9.60;6.80;;;;;;;19.85;100.00;99748.93;104091;1257;61730;-58
2023/07/05 00:57:55;;;;;;;10.70;6.60;;;;;;;19.84;100.00;99756.98;104330;1262;60395;-57
2023/07/05 01:00:21;;;;;;;7.60;6.80;;;;;;;19.82;100.00;99766.54;105998;1256;72878;-58
2023/07/05 01:02:53;;;;;;;8.30;6.70;;;;;;;19.78;100.00;99772.72;107624;1256;70288;-58
2023/07/05 01:05:20;;;;;;;12.60;7.00;;;;;;;19.76;100.00;99771.79;104208;1272;72339;-58
2023/07/05 01:07:47;;;;;;;7.90;6.90;;;;;;;19.79;100.00;99774.95;104492;1256;60437;-57
2023/07/05 01:10:19;;;;;;;8.00;7.10;;;;;;;19.79;100.00;99774.23;104194;1261;59507;-58
2023/07/05 01:13:01;;;;;;;8.70;7.10;;;;;;;19.82;100.00;99775.96;104708;1272;72787;-57
2023/07/05 01:15:32;;;;;;;7.90;6.40;;;;;;;19.88;100.00;99777.00;104208;1259;70487;-57
2023/07/05 01:18:11;;;;;;;7.60;6.80;;;;;;;19.91;100.00;99788.09;104013;1268;71736;-58
2023/07/05 01:20:57;;;;;;;10.90;7.00;;;;;;;19.94;100.00;99788.95;104187;1268;61542;-57
2023/07/05 01:23:48;;;;;;;8.10;7.20;;;;;;;19.89;100.00;99788.29;104256;1257;59835;-57
2023/07/05 01:26:44;;;;;;;7.60;6.90;;;;;;;19.85;100.00;99785.19;104120;1262;72570;-57
2023/07/05 01:29:39;;;;;;;11.60;7.10;;;;;;;19.87;100.00;99775.65;104357;1260;70226;-57
2023/07/05 01:32:11;;;;;;;7.60;6.80;;;;;;;19.96;100.00;99787.14;104316;1268;72972;-57
2023/07/05 01:34:46;;;;;;;12.90;7.10;;;;;;;20.09;100.00;99789.71;104317;1257;61785;-58
2023/07/05 01:37:42;;;;;;;7.30;6.50;;;;;;;20.21;100.00;99787.27;104241;1267;59872;-57
2023/07/05 01:40:12;;;;;;;7.30;6.70;;;;;;;20.28;100.00;99791.36;104603;1256;73421;-59
2023/07/05 01:42:39;;;;;;;8.00;6.20;;;;;;;20.32;100.00;99791.20;107274;1255;69401;-57
2023/07/05 01:45:07;;;;;;;9.30;7.10;;;;;;;20.34;100.00;99796.02;104558;1257;72488;-57
2023/07/05 01:47:47;;;;;;;7.80;7.00;;;;;;;20.37;100.00;99789.73;104331;1270;60633;-58
2023/07/05 01:50:29;;;;;;;10.80;7.00;;;;;;;20.41;100.00;99788.70;104437;1258;59890;-58
2023/07/05 01:53:01;;;;;;;13.00;6.30;;;;;;;20.43;100.00;99789.23;104096;1270;71804;-57
2023/07/05 01:55:34;;;;;;;8.70;6.50;;;;;;;20.49;100.00;99780.61;104519;1258;69790;-57
2023/07/05 01:58:08;;;;;;;7.70;6.40;;;;;;;20.54;100.00;99777.85;104195;1256;73504;-57
2023/07/05 02:00:37;;;;;;;7.50;6.60;;;;;;;20.58;100.00;99781.94;104355;1257;61711;-58
2023/07/05 02:03:12;;;;;;;7.80;6.00;;;;;;;20.61;100.00;99784.07;104061;1256;60196;-58
2023/07/05 02:05:39;;;;;;;8.20;6.80;;;;;;;20.66;100.00;99779.07;104024;1267;72533;-57
2023/07/05 02:08:06;;;;;;;7.40;6.50;;;;;;;20.67;100.00;99774.87;104247;1256;68642;-59
2023/07/05 02:10:34;;;;;;;7.60;6.80;;;;;;;20.72;100.00;99775.14;104075;1261;72048;-57
2023/07/05 02:13:08;;;;;;;8.60;6.60;;;;;;;20.78;100.00;99773.23;104320;1262;62555;-57
2023/07/05 02:15:37;;;;;;;10.50;6.40;;;;;;;20.86;100.00;99765.60;104146;1256;60001;-57
2023/07/05 02:18:05;;;;;;;7.30;6.50;;;;;;;20.90;100.00;99764.71;104246;1260;72610;-57
2023/07/05 02:20:32;;;;;;;8.20;6.10;;;;;;;20.88;100.00;99759.01;104089;1256;70253;-57
2023/07/05 02:23:00;;;;;;;6.50;5.90;;;;;;;20.91;100.00;99761.42;104299;1256;72435;-57
2023/07/05 02:25:28;;;;;;;8.30;6.10;;;;;;;20.94;100.00;99755.88;104390;1256;60691;-57
2023/07/05 02:27:55;;;;;;;7.10;6.40;;;;;;;20.96;100.00;99753.39;104330;1256;60710;-57
2023/07/05 02:30:24;;;;;;;11.60;6.40;;;;;;;21.00;100.00;99751.81;104356;1262;72757;-58
2023/07/05 02:32:51;;;;;;;11.90;6.10;;;;;;;21.05;100.00;99756.60;104299;1271;69176;-57
2023/07/05 02:35:18;;;;;;;6.50;5.80;;;;;;;21.07;100.00;99757.27;104009;1264;72786;-57
2023/07/05 02:37:45;;;;;;;7.50;6.60;;;;;;;21.04;100.00;99753.95;104302;1264;60805;-57
2023/07/05 02:40:12;;;;;;;7.90;7.10;;;;;;;21.03;100.00;99751.21;104099;1262;60070;-57
2023/07/05 02:42:39;;;;;;;9.70;6.70;;;;;;;20.99;100.00;99750.81;107964;1255;73401;-59
2023/07/05 02:45:06;;;;;;;6.90;6.30;;;;;;;20.96;100.00;99753.73;104862;1260;69381;-57
2023/07/05 02:47:33;;;;;;;7.80;6.40;;;;;;;20.94;100.00;99756.21;104460;1259;72342;-57
2023/07/05 02:50:00;;;;;;;7.40;6.20;;;;;;;20.93;100.00;99751.26;104268;1258;61559;-57
2023/07/05 02:52:28;;;;;;;7.70;6.70;;;;;;;20.92;100.00;99751.95;104204;1267;60210;-57
2023/07/05 02:54:55;;;;;;;7.20;6.50;;;;;;;20.95;100.00;99751.50;104131;1256;73445;-57
2023/07/05 02:57:22;;;;;;;8.70;6.70;;;;;;;20.98;100.00;99751.05;103994;1262;69877;-58
2023/07/05 02:59:49;;;;;;;7.60;7.00;;;;;;;21.00;100.00;99748.59;105848;1260;73189;-58
2023/07/05 03:02:16;;;;;;;10.90;6.50;;;;;;;21.05;100.00;99750.84;104325;1262;61547;-57
2023/07/05 03:04:43;;;;;;;8.00;6.70;;;;;;;21.08;100.00;99748.46;107897;1256;59475;-59
2023/07/05 03:07:10;;;;;;;7.30;6.30;;;;;;;21.12;100.00;99752.95;106629;1256;72831;-57
2023/07/05 03:09:37;;;;;;;7.60;6.90;;;;;;;21.15;100.00;99751.44;104635;1261;70437;-58
2023/07/05 03:12:05;;;;;;;7.50;6.80;;;;;;;21.15;100.00;99747.67;105034;1256;72319;-59
2023/07/05 03:14:31;;;;;;;7.50;6.70;;;;;;;21.20;100.00;99747.97;104136;1267;61681;-58
2023/07/05 03:16:58;;;;;;;7.70;6.60;;;;;;;21.22;100.00;99743.69;104423;1256;60179;-58
2023/07/05 03:19:25;;;;;;;9.40;6.70;;;;;;;21.26;100.00;99740.67;104547;1258;72611;-59
2023/07/05 03:21:53;;;;;;;7.60;6.50;;;;;;;21.26;100.00;99736.75;104206;1256;69600;-59
2023/07/05 03:24:19;;;;;;;8.40;6.60;;;;;;;21.27;100.00;99732.56;104213;1256;72931;-59
2023/07/05 03:26:51;;;;;;;7.60;6.60;;;;;;;21.30;100.00;99735.13;104582;1256;61662;-59
2023/07/05 03:29:19;;;;;;;9.40;7.00;;;;;;;21.32;100.00;99736.77;103986;1266;59806;-58
2023/07/05 03:31:47;;;;;;;10.00;6.70;;;;;;;21.36;100.00;99739.48;104256;1262;74109;-58
2023/07/05 03:34:15;;;;;;;8.60;7.30;;;;;;;21.34;100.00;99742.13;104274;1261;70531;-58
2023/07/05 03:36:43;;;;;;;8.80;6.70;;;;;;;21.33;100.00;99739.71;104409;1254;72514;-58
2023/07/05 03:39:14;;;;;;;8.20;7.30;;;;;;;21.32;100.00;99734.25;104376;1258;61607;-58
2023/07/05 03:41:41;;;;;;;9.80;7.60;;;;;;;21.34;100.00;99732.33;104370;1253;60027;-58
2023/07/05 03:44:08;;;;;;;8.90;7.90;;;;;;;21.36;100.00;99729.77;107392;1256;72706;-58
2023/07/05 03:46:35;;;;;;;9.60;7.20;;;;;;;21.41;100.00;99729.75;104792;1257;69943;-58
2023/07/05 03:49:02;;;;;;;10.00;7.30;;;;;;;21.50;100.00;99732.94;104390;1269;73054;-58
2023/07/05 03:51:29;;;;;;;8.00;6.50;;;;;;;21.60;100.00;99728.31;104345;1271;61529;-58
2023/07/05 03:53:56;;;;;;;8.60;7.00;;;;;;;21.64;100.00;99731.31;104816;1253;61304;-58
2023/07/05 03:56:23;;;;;;;7.50;6.50;;;;;;;21.71;100.00;99731.23;104377;1253;73827;-58
2023/07/05 03:58:50;;;;;;;8.90;6.80;;;;;;;21.75;100.00;99729.81;104348;1253;69918;-58
2023/07/05 04:01:22;;;;;;;7.30;6.60;;;;;;;21.79;100.00;99727.54;104434;1272;72543;-60
2023/07/05 04:03:50;;;;;;;12.10;7.40;;;;;;;21.81;100.00;99727.52;104541;1253;61663;-59
2023/07/05 04:06:18;;;;;;;9.10;7.30;;;;;;;21.89;100.00;99727.35;104458;1259;60027;-59
2023/07/05 04:08:44;;;;;;;7.80;7.00;;;;;;;21.85;100.00;99723.27;104429;1259;73520;-58
2023/07/05 04:11:11;;;;;;;7.60;6.90;;;;;;;21.92;100.00;99727.61;104320;1253;69341;-58
2023/07/05 04:13:38;;;;;;;7.60;6.70;;;;;;;21.90;100.00;99731.61;104330;1253;72712;-59
2023/07/05 04:16:10;;;;;;;7.40;6.60;;;;;;;21.94;100.00;99736.77;104349;1255;61742;-60
2023/07/05 04:18:37;;;;;;;7.60;6.60;;;;;;;21.93;100.00;99730.20;104306;1253;59750;-58
2023/07/05 04:21:04;;;;;;;9.00;7.00;;;;;;;21.94;100.00;99729.60;104383;1256;73526;-58
2023/07/05 04:23:31;;;;;;;7.40;6.40;;;;;;;21.99;100.00;99730.77;104817;1256;68885;-58
2023/07/05 04:26:09;;;;;;;15.10;6.90;;;;;;;22.11;100.00;99729.01;105787;1253;72262;-58
2023/07/05 04:28:37;;;;;;;7.60;6.90;;;;;;;22.18;100.00;99731.94;104252;1261;61756;-59
2023/07/05 04:31:09;;;;;;;8.10;7.30;;;;;;;22.23;100.00;99730.75;104665;1253;60520;-59
2023/07/05 04:33:36;;;;;;;7.50;6.70;;;;;;;22.27;100.00;99731.48;104416;1268;72420;-59
2023/07/05 04:36:04;;;;;;;7.40;6.70;;;;;;;22.28;100.00;99726.45;104535;1257;70244;-58
2023/07/05 04:38:50;;;;;;;7.90;7.00;;;;;;;22.27;100.00;99727.58;104402;1256;73641;-59
2023/07/05 04:41:17;;;;;;;8.00;6.60;;;;;;;22.27;100.00;99732.44;105866;1253;62061;-60
2023/07/05 04:43:44;;;;;;;7.60;6.80;;;;;;;22.31;100.00;99736.49;108433;1253;60018;-60
2023/07/05 04:46:11;;;;;;;7.10;6.50;;;;;;;22.33;100.00;99737.40;105249;1253;73738;-59
2023/07/05 04:48:38;;;;;;;9.60;7.50;;;;;;;22.34;100.00;99741.02;104901;1257;69071;-59
2023/07/05 04:51:06;;;;;;;8.80;7.00;;;;;;;22.40;100.00;99743.23;104837;1256;71424;-58
2023/07/05 04:53:33;;;;;;;8.00;7.20;;;;;;;22.43;100.00;99745.98;104724;1257;62610;-57
2023/07/05 04:56:00;;;;;;;8.00;7.10;;;;;;;22.42;100.00;99747.81;104531;1258;60459;-58
2023/07/05 04:58:27;;;;;;;10.50;7.00;;;;;;;22.43;100.00;99742.73;104270;1265;75485;-60
2023/07/05 05:01:00;;;;;;;9.10;6.70;;;;;;;22.44;100.00;99738.52;104650;1259;69260;-60
2023/07/05 05:03:27;;;;;;;7.70;6.80;;;;;;;22.43;100.00;99738.51;104390;1253;72662;-58
2023/07/05 05:05:54;;;;;;;7.80;7.00;;;;;;;22.48;100.00;99735.19;105065;1252;61436;-59
2023/07/05 05:08:22;;;;;;;9.40;7.00;;;;;;;22.41;100.00;99744.73;108470;1253;58728;-59
2023/07/05 05:10:51;;;;;;;9.90;7.30;;;;;;;22.31;100.00;99743.60;106644;1256;73059;-59
2023/07/05 05:13:18;;;;;;;9.20;7.30;;;;;;;22.16;100.00;99750.66;104825;1253;70102;-59
2023/07/05 05:15:45;;;;;;;11.60;7.40;;;;;;;22.13;100.00;99754.55;104355;1264;72936;-58
2023/07/05 05:18:12;;;;;;;9.00;7.40;;;;;;;22.14;100.00;99748.50;104728;1268;61413;-58
2023/07/05 05:20:40;;;;;;;12.50;7.30;;;;;;;22.15;100.00;99737.36;104848;1257;60783;-58
2023/07/05 05:23:07;;;;;;;8.60;7.10;;;;;;;22.12;100.00;99732.60;104372;1269;73477;-57
2023/07/05 05:25:34;;;;;;;8.50;7.70;;;;;;;22.09;100.00;99735.27;104329;1259;69288;-57
2023/07/05 05:28:01;;;;;;;9.30;7.50;;;;;;;22.12;100.00;99737.84;104603;1253;72709;-59
2023/07/05 05:30:31;;;;;;;8.30;7.50;;;;;;;22.09;100.00;99737.35;104367;1252;61788;-59
2023/07/05 05:33:02;;;;;;;7.90;7.10;;;;;;;22.16;100.00;99739.29;104335;1257;60483;-57
2023/07/05 05:35:31;;;;;;;9.00;7.30;;;;;;;22.21;100.00;99736.50;104358;1257;73933;-56
2023/07/05 05:37:58;;;;;;;9.00;7.30;;;;;;;22.30;100.00;99734.42;104688;1253;69693;-56
2023/07/05 05:40:26;;;;;;;8.90;7.60;;;;;;;22.37;100.00;99728.86;104549;1253;73014;-58
2023/07/05 05:42:53;;;;;;;10.00;7.90;;;;;;;22.56;100.00;99732.80;108100;1251;61496;-57
2023/07/05 05:45:20;;;;;;;10.60;7.30;;;;;;;22.66;100.00;99731.19;107855;1253;59385;-57
2023/07/05 05:47:46;;;;;;;10.50;8.00;;;;;;;22.63;100.00;99728.27;105086;1253;73676;-56
2023/07/05 05:50:14;;;;;;;9.10;7.60;;;;;;;22.77;100.00;99730.34;104738;1253;69265;-56
2023/07/05 05:52:41;;;;;;;8.60;7.70;;;;;;;22.78;100.00;99722.37;104426;1269;72393;-57
2023/07/05 05:55:08;;;;;;;7.80;7.00;;;;;;;22.85;100.00;99724.74;104643;1257;60600;-58
2023/07/05 05:57:36;;;;;;;;;;;;;;;22.91;100.00;99723.46;104569;1268;59395;-56
2023/07/05 06:00:03;;;;;;;8.00;7.10;;;;;;;22.95;100.00;99728.89;104357;1256;73284;-60
2023/07/05 06:02:33;;;;;;;9.30;7.00;;;;;;;22.96;100.00;99727.30;104414;1254;70445;-57
2023/07/05 06:05:00;;;;;;;10.90;7.20;;;;;;;23.03;100.00;99727.04;104393;1258;72211;-56
2023/07/05 06:07:27;;;;;;;8.50;7.60;;;;;;;23.05;100.00;99723.11;104445;1259;61769;-57
2023/07/05 06:09:54;;;;;;;8.60;7.70;;;;;;;23.14;100.00;99723.16;104413;1263;59975;-56
2023/07/05 06:12:21;;;;;;;8.10;7.30;;;;;;;23.23;100.00;99719.48;104351;1257;74716;-59
2023/07/05 06:14:48;;;;;;;8.70;7.20;;;;;;;23.31;100.00;99716.36;104276;1262;69213;-56
2023/07/05 06:17:16;;;;;;;8.50;7.10;;;;;;;23.42;100.00;99714.69;104548;1259;72124;-57
2023/07/05 06:19:43;;;;;;;8.60;7.70;;;;;;;23.50;100.00;99711.52;104432;1257;61509;-56
2023/07/05 06:22:10;;;;;;;12.30;7.50;;;;;;;23.57;100.00;99713.73;104272;1255;60559;-60
2023/07/05 06:24:37;;;;;;;8.50;7.70;;;;;;;23.62;100.00;99711.31;104353;1259;73613;-56
2023/07/05 06:27:04;;;;;;;9.00;7.20;;;;;;;23.66;100.00;99716.25;104411;1265;69591;-56
2023/07/05 06:29:32;;;;;;;8.40;7.50;;;;;;;23.73;100.00;99714.70;104447;1265;72416;-57
2023/07/05 06:31:59;;;;;;;10.90;7.80;;;;;;;23.78;100.00;99713.14;104349;1257;61960;-58
2023/07/05 06:34:26;;;;;;;9.00;7.40;;;;;;;23.83;100.00;99711.27;104261;1275;59982;-56
2023/07/05 06:36:53;;;;;;;7.60;6.90;;;;;;;23.90;100.00;99705.42;104321;1253;74203;-56
2023/07/05 06:39:20;;;;;;;8.20;7.40;;;;;;;23.94;100.00;99695.58;104392;1268;70005;-60
2023/07/05 06:41:48;;;;;;;9.40;7.10;;;;;;;24.01;100.00;99691.66;104290;1263;73054;-57
2023/07/05 06:44:15;;;;;;;11.80;7.60;;;;;;;24.05;100.00;99690.50;108404;1255;61456;-58
2023/07/05 06:46:42;;;;;;;9.40;7.10;;;;;;;24.11;100.00;99692.10;106743;1256;60652;-56
2023/07/05 06:49:09;;;;;;;10.90;6.80;;;;;;;24.16;100.00;99692.89;104493;1258;74125;-57
2023/07/05 06:51:36;;;;;;;12.70;7.90;;;;;;;24.21;100.00;99693.36;104736;1259;69946;-56
2023/07/05 06:54:03;;;;;;;8.70;7.10;;;;;;;24.26;100.00;99699.51;104782;1256;73101;-56
2023/07/05 06:56:30;;;;;;;8.50;7.70;;;;;;;24.32;100.00;99701.61;104379;1272;61624;-57
2023/07/05 06:58:57;;;;;;;12.20;7.60;;;;;;;24.40;100.00;99702.04;104471;1253;60565;-57
2023/07/05 07:01:25;;;;;;;8.90;7.60;;;;;;;24.45;100.00;99699.94;104504;1260;74062;-57
2023/07/05 07:03:52;;;;;;;8.80;7.10;;;;;;;24.52;100.00;99702.17;104640;1258;69718;-55
2023/07/05 07:06:21;;;;;;;9.10;7.00;;;;;;;24.55;100.00;99702.27;104472;1272;73198;-56
2023/07/05 07:08:48;;;;;;;7.30;6.50;;;;;;;24.56;100.00;99706.75;104337;1267;61618;-56
2023/07/05 07:11:15;;;;;;;8.80;6.60;;;;;;;24.59;100.00;99713.69;108441;1253;59996;-57
2023/07/05 07:13:42;;;;;;;8.70;6.50;;;;;;;24.62;100.00;99714.92;107766;1257;73968;-56
2023/07/05 07:16:11;;;;;;;10.20;6.30;;;;;;;24.65;100.00;99721.16;104580;1258;69900;-58
2023/07/05 07:18:38;;;;;;;7.40;6.70;;;;;;;24.64;100.00;99721.77;104564;1265;72502;-56
2023/07/05 07:21:06;;;;;;;7.40;6.70;;;;;;;24.65;100.00;99727.27;104399;1253;61631;-56
2023/07/05 07:23:35;;;;;;;7.70;6.90;;;;;;;24.65;100.00;99724.54;104376;1265;60532;-56
2023/07/05 07:26:05;;;;;;;7.80;7.00;;;;;;;24.69;100.00;99727.19;104472;1268;72423;-56
2023/07/05 07:28:33;;;;;;;11.40;6.70;;;;;;;24.76;100.00;99730.20;104516;1253;70160;-57
2023/07/05 07:31:11;;;;;;;8.10;6.80;;;;;;;24.83;100.00;99733.83;104312;1254;73211;-57
2023/07/05 07:33:38;;;;;;;11.20;7.00;;;;;;;24.93;100.00;99738.03;104372;1258;61691;-56
2023/07/05 07:36:13;;;;;;;11.10;7.20;;;;;;;25.00;100.00;99739.41;104399;1255;60516;-57
2023/07/05 07:38:40;;;;;;;7.40;6.70;;;;;;;25.09;100.00;99740.56;104407;1257;74387;-57
2023/07/05 07:41:21;;;;;;;9.40;6.90;;;;;;;25.18;100.00;99737.96;104386;1268;69325;-57
2023/07/05 07:43:51;;;;;;;8.30;6.70;;;;;;;25.29;100.00;99742.61;107034;1256;73232;-55
2023/07/05 07:46:21;;;;;;;7.40;6.30;;;;;;;25.43;100.00;99740.88;107089;1256;60517;-55
2023/07/05 07:48:49;;;;;;;10.30;7.10;;;;;;;25.54;100.00;99746.52;107193;1257;60540;-54
2023/07/05 07:51:17;;;;;;;13.10;7.20;;;;;;;25.61;100.00;99745.21;106229;1255;74641;-57
2023/07/05 07:54:04;;;;;;;7.40;6.40;;;;;;;25.73;100.00;99751.40;108430;1253;69487;-56
2023/07/05 07:56:31;;;;;;;7.60;6.80;;;;;;;25.82;100.00;99751.61;108442;1253;72418;-56
2023/07/05 07:59:00;;;;;;;10.70;7.30;;;;;;;25.92;100.00;99752.62;105823;1257;61731;-56
2023/07/05 08:01:29;;;;;;;9.50;6.60;;;;;;;25.98;100.00;99754.27;104461;1257;60462;-58
2023/07/05 08:03:57;;;;;;;8.50;6.90;;;;;;;26.00;100.00;99756.56;104536;1257;74206;-55
2023/07/05 08:06:48;;;;;;;7.80;7.10;;;;;;;26.08;100.00;99757.10;104519;1267;69705;-56
2023/07/05 08:09:28;;;;;;;11.80;7.50;;;;;;;26.15;100.00;99760.96;104385;1257;72598;-56
2023/07/05 08:11:56;;;;;;;13.60;7.10;;;;;;;26.19;100.00;99758.68;104335;1259;61778;-56
2023/07/05 08:14:23;;;;;;;14.50;7.70;;;;;;;26.26;100.00;99760.02;104454;1253;60888;-58
2023/07/05 08:16:51;;;;;;;16.60;7.60;;;;;;;26.30;100.00;99764.60;104469;1257;73991;-56
2023/07/05 08:19:20;;;;;;;11.10;6.80;;;;;;;26.34;100.00;99765.77;104406;1257;70241;-57
2023/07/05 08:21:47;;;;;;;14.40;7.50;;;;;;;26.42;100.00;99767.63;104379;1253;71490;-56
2023/07/05 08:24:17;;;;;;;14.50;8.60;;;;;;;26.52;100.00;99765.98;104367;1257;61779;-58
2023/07/05 08:26:47;;;;;;;17.70;8.00;;;;;;;26.66;100.00;99763.23;104271;1265;60490;-57
2023/07/05 08:29:14;;;;;;;15.20;7.70;;;;;;;26.77;100.00;99763.27;104428;1267;74198;-56
2023/07/05 08:31:46;;;;;;;10.90;7.40;;;;;;;26.87;100.00;99762.59;104330;1258;70386;-57
2023/07/05 08:34:13;;;;;;;15.30;8.70;;;;;;;26.98;100.00;99764.08;104468;1276;72241;-58
2023/07/05 08:36:40;;;;;;;15.30;8.50;;;;;;;27.07;100.00;99764.92;104445;1257;61732;-57
2023/07/05 08:39:07;;;;;;;;;;;;;;;27.16;100.00;99766.56;104306;1274;60560;-57
2023/07/05 08:41:41;;;;;;;15.00;7.70;;;;;;;27.21;100.00;99764.60;104356;1260;74318;-57
2023/07/05 08:44:22;;;;;;;10.90;7.40;;;;;;;27.26;100.00;99764.72;106135;1255;70175;-59
2023/07/05 08:46:56;;;;;;;12.40;7.30;;;;;;;27.38;100.00;99764.91;108185;1254;72409;-58
2023/07/05 08:49:26;;;;;;;16.80;7.50;;;;;;;27.41;100.00;99764.98;104580;1256;62586;-57
2023/07/05 08:51:55;;;;;;;17.50;7.50;;;;;;;27.46;100.00;99771.35;104489;1254;60898;-56
2023/07/05 08:54:22;;;;;;;15.00;7.30;;;;;;;27.52;100.00;99773.55;104453;1258;73358;-57
2023/07/05 08:56:51;;;;;;;13.70;7.70;;;;;;;27.57;100.00;99778.20;104580;1259;69253;-57
2023/07/05 08:59:31;;;;;;;16.00;7.60;;;;;;;27.72;100.00;99776.55;104483;1254;71973;-57
2023/07/05 09:01:59;;;;;;;19.40;8.30;;;;;;;27.74;100.00;99779.77;104352;1254;60572;-58
2023/07/05 09:04:29;;;;;;;17.70;7.40;;;;;;;27.70;100.00;99778.23;104430;1254;60438;-57
2023/07/05 09:07:23;;;;;;;15.70;7.70;;;;;;;27.71;100.00;99777.73;104306;1258;74058;-57
2023/07/05 09:10:07;;;;;;;12.70;7.50;;;;;;;27.73;100.00;99775.94;104383;1266;70259;-57
2023/07/05 09:12:37;;;;;;;13.00;7.30;;;;;;;27.74;100.00;99774.48;104345;1274;73290;-55
2023/07/05 09:15:11;;;;;;;13.40;7.80;;;;;;;27.81;100.00;99775.23;108308;1254;59941;-57
2023/07/05 09:18:02;;;;;;;10.20;6.90;;;;;;;27.88;100.00;99776.59;106886;1257;60009;-57
2023/07/05 09:20:38;;;;;;;13.50;8.10;;;;;;;27.88;100.00;99777.88;104550;1264;74214;-57
2023/07/05 09:23:10;;;;;;;13.00;7.20;;;;;;;27.89;100.00;99770.31;104395;1266;69330;-56
2023/07/05 09:25:37;;;;;;;15.90;7.20;;;;;;;27.94;100.00;99765.97;104459;1260;73010;-56
2023/07/05 09:28:24;;;;;;;10.90;7.80;;;;;;;28.04;100.00;99762.67;104707;1254;60624;-57
2023/07/05 09:30:52;;;;;;;12.50;7.80;;;;;;;28.11;100.00;99761.16;104349;1254;60563;-57
2023/07/05 09:33:22;;;;;;;9.30;6.90;;;;;;;28.20;100.00;99757.40;104334;1260;73644;-57
2023/07/05 09:35:49;;;;;;;12.90;7.50;;;;;;;28.39;100.00;99755.80;104426;1270;69345;-56
2023/07/05 09:38:35;;;;;;;10.80;7.30;;;;;;;28.57;100.00;99753.01;104235;1257;73065;-58
2023/07/05 09:41:05;;;;;;;17.10;6.90;;;;;;;28.77;100.00;99748.91;104513;1260;60514;-56
2023/07/05 09:43:34;;;;;;;10.50;7.20;;;;;;;28.94;100.00;99744.88;104432;1258;60805;-56
2023/07/05 09:46:02;;;;;;;12.90;8.20;;;;;;;29.12;100.00;99745.27;108266;1254;72810;-57
2023/07/05 09:48:30;;;;;;;11.70;7.30;;;;;;;29.24;100.00;99736.98;106891;1257;69775;-57
2023/07/05 09:51:03;;;;;;;;;;;;;;;29.36;100.00;99738.24;104662;1257;75094;-57
2023/07/05 09:53:47;;;;;;;14.60;6.70;;;;;;;29.51;100.00;99741.52;104711;1260;60432;-57
2023/07/05 09:56:16;;;;;;;11.00;6.90;;;;;;;29.63;98.60;99742.22;104727;1260;60480;-57
2023/07/05 09:58:45;;;;;;;11.80;7.70;;;;;;;29.75;99.75;99738.44;104915;1257;73548;-57
2023/07/05 10:01:18;;;;;;;13.40;7.90;;;;;;;29.90;98.13;99737.68;104578;1254;70323;-58
2023/07/05 10:04:04;;;;;;;17.10;7.40;;;;;;;30.00;95.98;99736.84;104491;1254;72494;-57
2023/07/05 10:06:32;;;;;;;8.40;7.10;;;;;;;30.07;94.48;99734.80;104372;1257;60514;-57
2023/07/05 10:09:04;;;;;;;11.20;7.80;;;;;;;30.12;93.02;99736.24;104154;1254;60499;-57
2023/07/05 10:11:34;;;;;;;9.60;6.70;;;;;;;30.19;92.12;99733.60;104376;1275;72817;-57
2023/07/05 10:14:10;;;;;;;12.80;7.10;;;;;;;30.25;90.59;99730.67;104478;1263;69705;-57
2023/07/05 10:16:54;;;;;;;11.70;7.50;;;;;;;30.25;87.11;99733.38;104334;1258;72963;-57
2023/07/05 10:19:23;;;;;;;8.90;7.40;;;;;;;30.23;89.34;99733.79;104499;1258;60510;-56
2023/07/05 10:22:11;;;;;;;10.40;7.40;;;;;;;30.20;95.09;99733.86;104344;1270;60514;-56
2023/07/05 10:24:46;;;;;;;9.50;6.60;;;;;;;30.24;92.68;99735.05;104342;1254;73676;-57
2023/07/05 10:27:19;;;;;;;12.30;6.70;;;;;;;30.27;86.22;99734.73;104391;1263;70031;-57
2023/07/05 10:29:50;;;;;;;12.40;6.90;;;;;;;30.34;86.36;99737.22;104277;1270;73068;-57
2023/07/05 10:32:22;;;;;;;11.90;7.70;;;;;;;30.44;84.38;99737.16;104473;1267;60448;-58
2023/07/05 10:34:50;;;;;;;11.90;7.70;;;;;;;30.47;80.80;99737.03;104306;1267;60159;-58
2023/07/05 10:37:30;;;;;;;8.90;7.70;;;;;;;30.46;80.93;99733.14;104346;1254;72573;-57
2023/07/05 10:39:58;;;;;;;12.90;7.60;;;;;;;30.44;82.10;99730.12;104511;1254;69534;-58
2023/07/05 10:42:25;;;;;;;8.50;7.70;;;;;;;30.44;84.49;99729.20;104423;1254;72505;-59
2023/07/05 10:44:52;;;;;;;14.70;7.40;;;;;;;30.48;80.42;99727.08;105657;1257;60438;-58
2023/07/05 10:47:20;;;;;;;13.00;7.30;;;;;;;30.52;82.27;99722.48;108283;1254;60644;-60
2023/07/05 10:49:49;;;;;;;11.90;7.10;;;;;;;30.60;78.82;99719.80;105529;1257;73697;-59
2023/07/05 10:52:16;;;;;;;12.40;8.00;;;;;;;30.73;78.76;99722.01;104730;1258;69499;-58
2023/07/05 10:55:02;;;;;;;11.90;7.80;;;;;;;30.69;79.50;99721.73;104562;1257;73087;-58
2023/07/05 10:57:32;;;;;;;9.60;7.10;;;;;;;30.73;75.21;99721.42;104754;1270;60703;-58
2023/07/05 11:00:15;;;;;;;9.60;7.30;;;;;;;30.76;74.02;99718.31;104472;1262;61004;-57
2023/07/05 11:03:09;;;;;;;11.30;7.30;;;;;;;30.75;81.32;99719.39;104308;1264;74287;-57
2023/07/05 11:05:50;;;;;;;9.20;7.30;;;;;;;30.64;77.53;99719.05;104315;1260;70132;-58
2023/07/05 11:08:20;;;;;;;11.50;7.80;;;;;;;30.48;76.32;99718.80;104328;1257;72684;-58
2023/07/05 11:10:47;;;;;;;12.70;7.70;;;;;;;30.46;78.57;99717.24;104318;1256;60657;-57
2023/07/05 11:13:15;;;;;;;9.10;7.30;;;;;;;30.43;79.03;99716.08;104310;1274;60588;-57
2023/07/05 11:15:45;;;;;;;16.10;8.70;;;;;;;30.40;78.50;99710.17;104310;1254;74531;-57
2023/07/05 11:18:19;;;;;;;19.50;8.90;;;;;;;30.24;77.62;99708.05;108248;1254;69148;-57
2023/07/05 11:20:51;;;;;;;10.50;7.40;;;;;;;30.17;89.35;99703.14;106149;1258;72679;-58
2023/07/05 11:23:41;;;;;;;42.20;10.50;;;;;;;30.26;97.40;99706.37;104637;1255;61026;-57
2023/07/05 11:26:11;;;;;;;32.20;9.20;;;;;;;30.36;88.14;99704.00;104273;1277;61168;-57
2023/07/05 11:28:41;;;;;;;10.30;7.40;;;;;;;30.41;85.48;99703.99;104462;1254;73585;-57
2023/07/05 11:31:09;;;;;;;15.10;7.80;;;;;;;30.43;79.53;99701.66;104460;1271;69893;-57
2023/07/05 11:33:37;;;;;;;27.60;9.40;;;;;;;30.46;82.59;99700.73;104118;1273;73003;-58